Ye Chi — VRFV6 — position and weather

sailwx.info

Track history (hours):
 
Tides and Currents Weather Stations Pressure Air Temp Water Temp Dewpoint Dewpoint Depression Visibility Wind Speed Wind Dir Waves Ship Positions

Ye Chi

Last reported at 2017-Oct-17 01:12 UTC. Time now 2017-Oct-17 01:44 UTC.
Position N 01°12' E 103°38'.

Length 186 m; draft 7.5 m.

Type: Tanker. MMSI: 477621300.

Date/timePositionNaut miles runAvg speedWind from/ knotsBaromVisibWave heightAir tempDewpointWater temp
2017-Oct-17 01:12N 01°12' E 103°38'415.3
2017-Oct-17 00:57N 01°12' E 103°41'0 0.0
2017-Oct-17 00:30N 01°12' E 103°41'0 0.1
2017-Oct-16 23:54N 01°12' E 103°41'0 0.0
2017-Oct-16 23:30N 01°12' E 103°41'0 0.0
2017-Oct-16 23:00N 01°12' E 103°41'0 0.0
2017-Oct-16 22:27N 01°12' E 103°41'0 0.0
2017-Oct-16 21:57N 01°12' E 103°41'0 0.0
2017-Oct-16 21:30N 01°12' E 103°41'0 0.1
2017-Oct-16 20:57N 01°12' E 103°41'0 0.0
2017-Oct-16 20:30N 01°12' E 103°41'0 0.0
2017-Oct-16 20:00N 01°12' E 103°41'0 0.0
2017-Oct-16 19:30N 01°12' E 103°41'0 0.0
2017-Oct-16 19:00N 01°12' E 103°41'0 0.0
2017-Oct-16 18:30N 01°12' E 103°41'0 0.0
2017-Oct-16 18:00N 01°12' E 103°41'0 0.0
2017-Oct-16 17:30N 01°12' E 103°41'0 0.0
2017-Oct-16 16:51N 01°12' E 103°41'0 0.0
2017-Oct-16 16:24N 01°12' E 103°41'0 0.1
2017-Oct-16 15:54N 01°12' E 103°41'1 3.6
2017-Oct-16 15:30N 01°12' E 103°40'4 8.0
2017-Oct-16 15:00N 01°13' E 103°36'6 5.6
2017-Oct-16 13:58N 01°18' E 103°33'4 8.4
2017-Oct-16 13:30N 01°21' E 103°33'0 0.0
2017-Oct-16 09:35N 01°21' E 103°32'0 0.0
2017-Oct-16 04:32N 01°21' E 103°32'0 0.0
2017-Oct-15 19:53N 01°21' E 103°32'0 0.0
2017-Oct-15 19:08N 01°21' E 103°32'0 0.0
2017-Oct-15 18:02N 01°21' E 103°32'0 0.0
2017-Oct-15 17:53N 01°21' E 103°32'0 0.0
2017-Oct-15 17:29N 01°21' E 103°32'0 0.0
2017-Oct-15 16:44N 01°21' E 103°32'0 0.0
2017-Oct-15 16:14N 01°21' E 103°32'0 0.0
2017-Oct-15 13:56N 01°21' E 103°32'0 0.0
2017-Oct-15 05:02N 01°21' E 103°33'0 0.0
2017-Oct-14 18:35N 01°21' E 103°32'0 0.0
2017-Oct-14 12:50N 01°21' E 103°32'0 0.5
2017-Oct-14 12:29N 01°21' E 103°33'2 3.4
2017-Oct-14 12:01N 01°20' E 103°33'4 8.9
2017-Oct-14 11:31N 01°15' E 103°33'2 3.5
2017-Oct-14 11:01N 01°16' E 103°34'0 0.3
2017-Oct-14 10:23N 01°16' E 103°34'0 0.0
2017-Oct-14 09:59N 01°16' E 103°34'0 0.0
2017-Oct-14 09:29N 01°16' E 103°34'0 0.0
2017-Oct-14 08:59N 01°16' E 103°34'0 0.0
2017-Oct-14 08:29N 01°16' E 103°34'0 0.1
2017-Oct-14 07:59N 01°16' E 103°34'0 0.2
2017-Oct-14 07:29N 01°16' E 103°34'0 0.1
2017-Oct-14 06:53N 01°16' E 103°34'0 0.0
2017-Oct-14 06:23N 01°16' E 103°34'0 0.0
2017-Oct-14 05:59N 01°16' E 103°34'0 0.0
2017-Oct-14 05:23N 01°16' E 103°34'0 0.2
2017-Oct-14 04:59N 01°16' E 103°34'0 0.0
2017-Oct-14 04:26N 01°16' E 103°34'0 0.1
2017-Oct-14 03:59N 01°16' E 103°34'0 0.0
2017-Oct-14 03:20N 01°16' E 103°34'0 0.0
2017-Oct-14 02:56N 01°16' E 103°34'0 0.0
2017-Oct-14 02:29N 01°16' E 103°34'0 0.0
2017-Oct-14 01:56N 01°16' E 103°34'0 0.1
2017-Oct-14 01:23N 01°16' E 103°34'0 0.0
2017-Oct-14 00:59N 01°16' E 103°34'0 0.0
2017-Oct-14 00:26N 01°16' E 103°34'0 0.1
2017-Oct-13 23:50N 01°16' E 103°34'0 0.0
2017-Oct-13 23:26N 01°16' E 103°34'0 0.0
2017-Oct-13 22:59N 01°16' E 103°34'0 0.0
2017-Oct-13 22:30N 01°16' E 103°34'0 0.0
2017-Oct-13 22:00N 01°16' E 103°34'0 0.6
2017-Oct-13 21:30N 01°16' E 103°34'3 5.7
2017-Oct-13 21:01N 01°13' E 103°33'510.2
2017-Oct-13 20:30N 01°12' E 103°37'510.2
2017-Oct-13 20:00N 01°14' E 103°42'4 7.6
2017-Oct-13 19:30N 01°17' E 103°44'0 0.3
2017-Oct-13 19:00N 01°17' E 103°44'0 0.0
2017-Oct-13 18:30N 01°17' E 103°44'0 0.0
2017-Oct-13 18:00N 01°17' E 103°44'0 0.0
2017-Oct-13 17:30N 01°17' E 103°44'0 0.0
2017-Oct-13 17:01N 01°17' E 103°44'0 0.0
2017-Oct-13 16:30N 01°17' E 103°44'0 0.0
2017-Oct-13 16:01N 01°17' E 103°44'0 0.0
2017-Oct-13 15:30N 01°17' E 103°44'0 0.0
2017-Oct-13 15:01N 01°17' E 103°44'0 0.0
2017-Oct-13 14:30N 01°17' E 103°44'0 0.0
2017-Oct-13 14:00N 01°17' E 103°44'0 0.0
2017-Oct-13 13:30N 01°17' E 103°44'0 0.0
2017-Oct-13 12:57N 01°17' E 103°44'0 0.0
2017-Oct-13 12:30N 01°17' E 103°44'0 0.0
2017-Oct-13 11:57N 01°17' E 103°44'0 0.0
2017-Oct-13 11:30N 01°17' E 103°44'0 0.0
2017-Oct-13 11:00N 01°17' E 103°44'0 0.0
2017-Oct-13 10:30N 01°17' E 103°44'0 0.0
2017-Oct-13 10:01N 01°17' E 103°44'0 0.0
2017-Oct-13 09:30N 01°17' E 103°44'0 0.0
2017-Oct-13 09:01N 01°17' E 103°44'0 0.0
2017-Oct-13 08:30N 01°17' E 103°44'0 0.0
2017-Oct-13 07:57N 01°17' E 103°44'2 5.4
2017-Oct-13 07:30N 01°16' E 103°46'1 2.3
2017-Oct-13 06:59N 01°15' E 103°47'4 7.6
2017-Oct-13 06:30N 01°17' E 103°44'0 0.0
2017-Oct-13 05:57N 01°17' E 103°44'0 0.0
2017-Oct-13 05:30N 01°17' E 103°44'0 0.0
2017-Oct-13 05:00N 01°17' E 103°44'0 0.0
2017-Oct-13 04:30N 01°17' E 103°44'0 0.0
2017-Oct-13 04:00N 01°17' E 103°44'0 0.0
2017-Oct-13 03:30N 01°17' E 103°44'0 0.0
2017-Oct-13 03:00N 01°17' E 103°44'0 0.0
2017-Oct-13 02:30N 01°17' E 103°44'0 0.0
2017-Oct-13 02:00N 01°17' E 103°44'0 0.0
2017-Oct-13 01:30N 01°17' E 103°44'0 0.0
2017-Oct-13 01:00N 01°17' E 103°44'0 0.0
2017-Oct-13 00:30N 01°17' E 103°44'0 0.0
2017-Oct-13 00:00N 01°17' E 103°44'0 0.0
2017-Oct-12 23:27N 01°17' E 103°44'0 0.0
2017-Oct-12 23:00N 01°17' E 103°44'0 0.6
2017-Oct-12 22:30N 01°17' E 103°44'3 5.8
2017-Oct-12 22:00N 01°15' E 103°46'2 4.4
2017-Oct-12 21:30N 01°14' E 103°48'0 0.2
2017-Oct-12 20:57N 01°14' E 103°48'0 0.1
2017-Oct-12 20:27N 01°14' E 103°48'0 0.1
2017-Oct-12 20:00N 01°14' E 103°48'0 0.1
2017-Oct-12 19:30N 01°14' E 103°48'0 0.0
2017-Oct-12 19:00N 01°14' E 103°48'0 0.0
2017-Oct-12 18:30N 01°14' E 103°48'0 0.1
2017-Oct-12 18:00N 01°14' E 103°48'0 0.0
2017-Oct-12 17:30N 01°14' E 103°48'0 0.0
2017-Oct-12 17:00N 01°14' E 103°48'0 0.0
2017-Oct-12 16:30N 01°14' E 103°48'0 0.0
2017-Oct-12 15:54N 01°14' E 103°48'0 0.0
2017-Oct-12 15:30N 01°14' E 103°48'0 0.0
2017-Oct-12 15:00N 01°14' E 103°48'0 0.0
2017-Oct-12 14:30N 01°14' E 103°48'0 0.0
2017-Oct-12 13:54N 01°14' E 103°48'0 0.0
2017-Oct-12 13:27N 01°14' E 103°48'0 0.0
2017-Oct-12 13:00N 01°14' E 103°48'0 0.0
2017-Oct-12 12:24N 01°14' E 103°48'0 0.1
2017-Oct-12 11:54N 01°14' E 103°48'0 0.0
2017-Oct-12 11:30N 01°14' E 103°48'0 0.0
2017-Oct-12 10:51N 01°14' E 103°48'0 0.0
2017-Oct-12 10:27N 01°14' E 103°48'0 0.0
2017-Oct-12 10:00N 01°14' E 103°48'0 0.2
2017-Oct-12 09:24N 01°14' E 103°48'0 0.0
2017-Oct-12 09:00N 01°14' E 103°48'0 0.1
2017-Oct-12 08:30N 01°14' E 103°48'0 0.1
2017-Oct-12 08:00N 01°14' E 103°48'0 0.2
2017-Oct-12 07:24N 01°14' E 103°48'0 0.0
2017-Oct-12 07:00N 01°14' E 103°48'0 0.0
2017-Oct-12 06:24N 01°14' E 103°48'0 0.3
2017-Oct-12 06:00N 01°14' E 103°48'0 0.0
2017-Oct-12 05:27N 01°14' E 103°48'0 0.0
2017-Oct-12 05:00N 01°14' E 103°48'0 0.1
2017-Oct-12 04:30N 01°14' E 103°48'0 0.1
2017-Oct-12 04:00N 01°14' E 103°48'0 0.1
2017-Oct-12 03:24N 01°14' E 103°48'0 0.0
2017-Oct-12 02:54N 01°14' E 103°48'0 0.2
2017-Oct-12 02:30N 01°14' E 103°48'0 0.0
2017-Oct-12 02:00N 01°14' E 103°48'0 0.0
2017-Oct-12 01:27N 01°14' E 103°48'0 0.0
2017-Oct-12 01:00N 01°14' E 103°48'0 0.2
2017-Oct-12 00:30N 01°14' E 103°48'0 0.1
2017-Oct-12 00:00N 01°14' E 103°48'0 0.1
2017-Oct-11 23:30N 01°14' E 103°48'0 0.2
2017-Oct-11 22:57N 01°14' E 103°48'0 0.1
2017-Oct-11 22:30N 01°14' E 103°48'0 0.3
2017-Oct-11 21:58N 01°14' E 103°48'0 0.0
2017-Oct-11 21:30N 01°14' E 103°48'0 0.3
2017-Oct-11 21:00N 01°14' E 103°48'0 0.0
2017-Oct-11 20:30N 01°14' E 103°48'0 0.1
2017-Oct-11 19:54N 01°14' E 103°48'0 0.0
2017-Oct-11 19:30N 01°14' E 103°48'0 0.0
2017-Oct-11 19:00N 01°14' E 103°48'0 0.0
2017-Oct-11 18:27N 01°14' E 103°48'0 0.0
2017-Oct-11 17:57N 01°14' E 103°48'0 0.4
2017-Oct-11 17:29N 01°14' E 103°48'0 0.1
2017-Oct-11 16:57N 01°14' E 103°48'2 0.1
2017-Oct-10 23:54N 01°14' E 103°46'0 0.0
2017-Oct-10 23:30N 01°14' E 103°46'0 0.0
2017-Oct-10 23:00N 01°14' E 103°46'0 0.0
2017-Oct-10 22:24N 01°14' E 103°46'0 0.0
2017-Oct-10 21:54N 01°14' E 103°46'0 0.0
2017-Oct-10 21:18N 01°14' E 103°46'0 0.0
2017-Oct-10 21:00N 01°14' E 103°46'0 0.0
2017-Oct-10 20:30N 01°14' E 103°46'0 0.0
2017-Oct-10 20:00N 01°14' E 103°46'0 0.0
2017-Oct-10 19:27N 01°14' E 103°46'0 0.0
2017-Oct-10 18:54N 01°14' E 103°46'0 0.2
2017-Oct-10 18:30N 01°14' E 103°46'0 0.1
2017-Oct-10 17:57N 01°14' E 103°46'0 0.0
2017-Oct-10 17:30N 01°14' E 103°46'0 0.0
2017-Oct-10 16:57N 01°14' E 103°46'0 0.0
2017-Oct-10 16:30N 01°14' E 103°46'0 0.0
2017-Oct-10 15:57N 01°14' E 103°46'0 0.0
2017-Oct-10 15:30N 01°14' E 103°46'0 0.0
2017-Oct-10 14:54N 01°14' E 103°46'0 0.0
2017-Oct-10 14:01N 01°14' E 103°46'0 0.0
2017-Oct-10 13:30N 01°14' E 103°46'0 0.0
2017-Oct-10 12:57N 01°14' E 103°46'0 0.0
2017-Oct-10 12:27N 01°14' E 103°46'0 0.0
2017-Oct-10 11:57N 01°14' E 103°46'0 0.0
2017-Oct-10 11:30N 01°14' E 103°46'0 0.0
2017-Oct-10 10:51N 01°14' E 103°46'0 0.0
2017-Oct-10 10:30N 01°14' E 103°46'0 0.0
2017-Oct-10 09:51N 01°14' E 103°46'0 0.0
2017-Oct-10 09:30N 01°14' E 103°46'0 0.0
2017-Oct-10 08:57N 01°14' E 103°46'0 0.0
2017-Oct-10 08:30N 01°14' E 103°46'0 0.1
2017-Oct-10 08:00N 01°14' E 103°46'0 0.0
2017-Oct-10 07:30N 01°14' E 103°46'0 0.1
2017-Oct-10 07:00N 01°14' E 103°46'0 0.0
2017-Oct-10 06:27N 01°14' E 103°46'0 0.0
2017-Oct-10 06:01N 01°14' E 103°46'0 0.0
2017-Oct-10 05:18N 01°14' E 103°46'0 0.0
2017-Oct-10 05:00N 01°14' E 103°46'0 0.0
2017-Oct-10 04:30N 01°14' E 103°46'0 0.0
2017-Oct-10 04:00N 01°14' E 103°46'0 0.0
2017-Oct-10 03:18N 01°14' E 103°46'0 0.0
2017-Oct-10 03:00N 01°14' E 103°46'0 0.0
2017-Oct-10 02:30N 01°14' E 103°46'0 0.0
2017-Oct-10 01:57N 01°14' E 103°46'0 0.0
2017-Oct-10 01:30N 01°14' E 103°46'0 0.0
2017-Oct-10 00:48N 01°14' E 103°46'0 0.0
2017-Oct-10 00:30N 01°14' E 103°46'0 0.0
2017-Oct-10 00:00N 01°14' E 103°46'0 0.0
2017-Oct-09 23:30N 01°14' E 103°46'0 0.0
2017-Oct-09 23:00N 01°14' E 103°46'0 0.0
2017-Oct-09 22:30N 01°14' E 103°46'0 0.0
2017-Oct-09 22:00N 01°14' E 103°46'0 0.0
2017-Oct-09 21:30N 01°14' E 103°46'0 0.0
2017-Oct-09 21:00N 01°14' E 103°46'0 0.0
2017-Oct-09 20:24N 01°14' E 103°46'0 0.0
2017-Oct-09 19:57N 01°14' E 103°46'0 0.0
2017-Oct-09 19:30N 01°14' E 103°46'0 0.0
2017-Oct-09 19:00N 01°14' E 103°46'0 0.1
2017-Oct-09 18:27N 01°14' E 103°46'0 0.1
2017-Oct-09 18:01N 01°14' E 103°46'0 0.0
2017-Oct-09 17:27N 01°14' E 103°46'0 0.0
2017-Oct-09 17:00N 01°14' E 103°46'0 0.0
2017-Oct-09 16:30N 01°14' E 103°46'0 0.0
2017-Oct-09 15:57N 01°14' E 103°46'3 6.1
2017-Oct-09 15:30N 01°13' E 103°49'0 0.1
2017-Oct-09 14:59N 01°13' E 103°49'3 6.4
2017-Oct-09 14:30N 01°14' E 103°46'2 4.0
2017-Oct-09 14:00N 01°13' E 103°48'1 1.9
2017-Oct-09 13:30N 01°13' E 103°48'1 1.3
2017-Oct-09 12:59N 01°13' E 103°49'0 0.0
2017-Oct-09 12:29N 01°13' E 103°49'0 0.0
2017-Oct-09 11:47N 01°13' E 103°49'0 0.1
2017-Oct-09 11:29N 01°13' E 103°49'0 0.0
2017-Oct-09 10:59N 01°13' E 103°49'0 0.0
2017-Oct-09 10:29N 01°13' E 103°49'0 0.0
2017-Oct-09 09:59N 01°13' E 103°49'0 0.0
2017-Oct-09 09:29N 01°13' E 103°49'0 0.0
2017-Oct-09 08:59N 01°13' E 103°49'0 0.0
2017-Oct-09 08:30N 01°13' E 103°49'0 0.0
2017-Oct-09 08:00N 01°13' E 103°49'0 0.0
2017-Oct-09 07:30N 01°13' E 103°49'0 0.0
2017-Oct-09 06:59N 01°13' E 103°49'1 1.2
2017-Oct-09 06:30N 01°13' E 103°48'1 0.3
2017-Oct-09 04:49N 01°12' E 103°48'0 0.0
2017-Oct-09 04:13N 01°12' E 103°48'0 0.0
2017-Oct-09 03:49N 01°12' E 103°48'0 0.0
2017-Oct-09 03:28N 01°12' E 103°48'0 0.0
2017-Oct-09 02:49N 01°12' E 103°48'0 0.0
2017-Oct-09 01:49N 01°12' E 103°48'0 0.0
2017-Oct-09 00:28N 01°12' E 103°48'0 0.0
2017-Oct-08 23:01N 01°12' E 103°48'0 0.0
2017-Oct-08 21:31N 01°12' E 103°48'0 0.0
2017-Oct-08 21:07N 01°12' E 103°48'0 0.0
2017-Oct-08 20:43N 01°12' E 103°48'0 0.0
2017-Oct-08 20:13N 01°12' E 103°48'0 0.0
2017-Oct-08 18:37N 01°12' E 103°48'0 0.0
2017-Oct-08 17:31N 01°12' E 103°48'0 0.0
2017-Oct-08 17:25N 01°12' E 103°48'1 1.6
2017-Oct-08 16:35N 01°13' E 103°47'0 1.7
2017-Oct-08 16:30N 01°14' E 103°47'1 1.7
2017-Oct-08 16:00N 01°14' E 103°47'1 1.9
2017-Oct-08 15:31N 01°15' E 103°46'2 2.3
2017-Oct-08 14:52N 01°15' E 103°45'4 4.2
2017-Oct-08 13:52N 01°12' E 103°48'0 0.0
2017-Oct-08 13:25N 01°12' E 103°48'0 0.0
2017-Oct-08 12:49N 01°12' E 103°48'0 0.0
2017-Oct-08 11:43N 01°12' E 103°48'0 0.0
2017-Oct-08 11:25N 01°12' E 103°48'0 0.0
2017-Oct-08 10:58N 01°12' E 103°48'0 0.0
2017-Oct-08 10:19N 01°12' E 103°48'0 0.0
2017-Oct-08 09:46N 01°12' E 103°48'0 0.0
2017-Oct-08 09:19N 01°12' E 103°48'0 0.0
2017-Oct-08 08:55N 01°12' E 103°48'0 0.3
2017-Oct-08 08:30N 01°12' E 103°48'2 4.5
2017-Oct-08 08:00N 01°14' E 103°47'510.0
2017-Oct-08 07:30N 01°14' E 103°42'2 1.7
2017-Oct-08 06:36N 01°16' E 103°41'0 0.0
2017-Oct-08 06:30N 01°16' E 103°41'0 0.0
2017-Oct-08 05:42N 01°16' E 103°41'0 0.0
2017-Oct-08 05:30N 01°16' E 103°41'0 0.0
2017-Oct-08 04:45N 01°16' E 103°41'0 0.0
2017-Oct-08 04:30N 01°16' E 103°41'0 0.0
2017-Oct-08 03:45N 01°16' E 103°41'0 0.0
2017-Oct-08 03:21N 01°16' E 103°41'0 0.0
2017-Oct-08 02:57N 01°16' E 103°41'0 0.0
2017-Oct-08 02:27N 01°16' E 103°41'0 0.0
2017-Oct-08 01:57N 01°16' E 103°41'0 0.0
2017-Oct-08 01:27N 01°16' E 103°41'0 0.0
2017-Oct-08 00:51N 01°16' E 103°41'0 0.0
2017-Oct-08 00:24N 01°16' E 103°41'0 0.0
2017-Oct-07 23:48N 01°16' E 103°41'0 0.0
2017-Oct-07 23:30N 01°16' E 103°41'0 0.0
2017-Oct-07 22:39N 01°16' E 103°41'0 0.0
2017-Oct-07 22:30N 01°16' E 103°41'0 0.0
2017-Oct-07 21:54N 01°16' E 103°41'0 0.0
2017-Oct-07 20:36N 01°16' E 103°41'0 0.0
2017-Oct-07 20:21N 01°16' E 103°41'0 0.0
2017-Oct-07 19:57N 01°16' E 103°41'0 0.0
2017-Oct-07 19:18N 01°16' E 103°41'0 0.1
2017-Oct-07 18:45N 01°16' E 103°41'0 0.2
2017-Oct-07 18:27N 01°16' E 103°41'0 0.0
2017-Oct-07 17:57N 01°16' E 103°41'0 0.0
2017-Oct-07 17:15N 01°16' E 103°41'0 0.0
2017-Oct-07 16:51N 01°16' E 103°41'0 0.0
2017-Oct-07 15:39N 01°16' E 103°41'0 0.1
2017-Oct-07 15:24N 01°16' E 103°41'0 0.0
2017-Oct-07 14:48N 01°16' E 103°41'0 0.0
2017-Oct-07 13:42N 01°16' E 103°41'0 0.0
2017-Oct-07 10:54N 01°16' E 103°41'0 0.0
2017-Oct-07 09:27N 01°16' E 103°41'0 0.0
2017-Oct-07 08:54N 01°16' E 103°41'0 0.0
2017-Oct-07 08:30N 01°16' E 103°41'0 0.0
2017-Oct-07 07:21N 01°16' E 103°41'0 0.0
2017-Oct-07 06:57N 01°16' E 103°41'0 0.0
2017-Oct-07 06:30N 01°16' E 103°41'0 0.0
2017-Oct-07 05:51N 01°16' E 103°41'0 0.0
2017-Oct-07 05:24N 01°16' E 103°41'0 0.0
2017-Oct-07 04:45N 01°16' E 103°41'0 0.0
2017-Oct-07 04:27N 01°16' E 103°41'0 0.0
2017-Oct-07 03:39N 01°16' E 103°41'0 0.0
2017-Oct-07 03:27N 01°16' E 103°41'0 0.0
2017-Oct-07 02:54N 01°16' E 103°41'0 0.0
2017-Oct-07 02:27N 01°16' E 103°41'0 0.0
2017-Oct-07 01:51N 01°16' E 103°41'0 0.0
2017-Oct-07 01:21N 01°16' E 103°41'  
Track history (hours):
 
Tides and Currents Weather Stations Pressure Air Temp Water Temp Dewpoint Dewpoint Depression Visibility Wind Speed Wind Dir Waves Ship Positions

Ye Chi

Last reported at 2017-Oct-17 01:12 UTC. Time now 2017-Oct-17 01:44 UTC.
Position N 01°12' E 103°38'.

Length 186 m; draft 7.5 m.

Type: Tanker. MMSI: 477621300.

Date/timePositionNaut miles runAvg speedWind from/ knotsBaromVisibWave heightAir tempDewpointWater temp
2017-Oct-17 01:12N 01°12' E 103°38'415.3
2017-Oct-17 00:57N 01°12' E 103°41'0 0.0
2017-Oct-17 00:30N 01°12' E 103°41'0 0.1
2017-Oct-16 23:54N 01°12' E 103°41'0 0.0
2017-Oct-16 23:30N 01°12' E 103°41'0 0.0
2017-Oct-16 23:00N 01°12' E 103°41'0 0.0
2017-Oct-16 22:27N 01°12' E 103°41'0 0.0
2017-Oct-16 21:57N 01°12' E 103°41'0 0.0
2017-Oct-16 21:30N 01°12' E 103°41'0 0.1
2017-Oct-16 20:57N 01°12' E 103°41'0 0.0
2017-Oct-16 20:30N 01°12' E 103°41'0 0.0
2017-Oct-16 20:00N 01°12' E 103°41'0 0.0
2017-Oct-16 19:30N 01°12' E 103°41'0 0.0
2017-Oct-16 19:00N 01°12' E 103°41'0 0.0
2017-Oct-16 18:30N 01°12' E 103°41'0 0.0
2017-Oct-16 18:00N 01°12' E 103°41'0 0.0
2017-Oct-16 17:30N 01°12' E 103°41'0 0.0
2017-Oct-16 16:51N 01°12' E 103°41'0 0.0
2017-Oct-16 16:24N 01°12' E 103°41'0 0.1
2017-Oct-16 15:54N 01°12' E 103°41'1 3.6
2017-Oct-16 15:30N 01°12' E 103°40'4 8.0
2017-Oct-16 15:00N 01°13' E 103°36'6 5.6
2017-Oct-16 13:58N 01°18' E 103°33'4 8.4
2017-Oct-16 13:30N 01°21' E 103°33'0 0.0
2017-Oct-16 09:35N 01°21' E 103°32'0 0.0
2017-Oct-16 04:32N 01°21' E 103°32'0 0.0
2017-Oct-15 19:53N 01°21' E 103°32'0 0.0
2017-Oct-15 19:08N 01°21' E 103°32'0 0.0
2017-Oct-15 18:02N 01°21' E 103°32'0 0.0
2017-Oct-15 17:53N 01°21' E 103°32'0 0.0
2017-Oct-15 17:29N 01°21' E 103°32'0 0.0
2017-Oct-15 16:44N 01°21' E 103°32'0 0.0
2017-Oct-15 16:14N 01°21' E 103°32'0 0.0
2017-Oct-15 13:56N 01°21' E 103°32'0 0.0
2017-Oct-15 05:02N 01°21' E 103°33'0 0.0
2017-Oct-14 18:35N 01°21' E 103°32'0 0.0
2017-Oct-14 12:50N 01°21' E 103°32'0 0.5
2017-Oct-14 12:29N 01°21' E 103°33'2 3.4
2017-Oct-14 12:01N 01°20' E 103°33'4 8.9
2017-Oct-14 11:31N 01°15' E 103°33'2 3.5
2017-Oct-14 11:01N 01°16' E 103°34'0 0.3
2017-Oct-14 10:23N 01°16' E 103°34'0 0.0
2017-Oct-14 09:59N 01°16' E 103°34'0 0.0
2017-Oct-14 09:29N 01°16' E 103°34'0 0.0
2017-Oct-14 08:59N 01°16' E 103°34'0 0.0
2017-Oct-14 08:29N 01°16' E 103°34'0 0.1
2017-Oct-14 07:59N 01°16' E 103°34'0 0.2
2017-Oct-14 07:29N 01°16' E 103°34'0 0.1
2017-Oct-14 06:53N 01°16' E 103°34'0 0.0
2017-Oct-14 06:23N 01°16' E 103°34'0 0.0
2017-Oct-14 05:59N 01°16' E 103°34'0 0.0
2017-Oct-14 05:23N 01°16' E 103°34'0 0.2
2017-Oct-14 04:59N 01°16' E 103°34'0 0.0
2017-Oct-14 04:26N 01°16' E 103°34'0 0.1
2017-Oct-14 03:59N 01°16' E 103°34'0 0.0
2017-Oct-14 03:20N 01°16' E 103°34'0 0.0
2017-Oct-14 02:56N 01°16' E 103°34'0 0.0
2017-Oct-14 02:29N 01°16' E 103°34'0 0.0
2017-Oct-14 01:56N 01°16' E 103°34'0 0.1
2017-Oct-14 01:23N 01°16' E 103°34'0 0.0
2017-Oct-14 00:59N 01°16' E 103°34'0 0.0
2017-Oct-14 00:26N 01°16' E 103°34'0 0.1
2017-Oct-13 23:50N 01°16' E 103°34'0 0.0
2017-Oct-13 23:26N 01°16' E 103°34'0 0.0
2017-Oct-13 22:59N 01°16' E 103°34'0 0.0
2017-Oct-13 22:30N 01°16' E 103°34'0 0.0
2017-Oct-13 22:00N 01°16' E 103°34'0 0.6
2017-Oct-13 21:30N 01°16' E 103°34'3 5.7
2017-Oct-13 21:01N 01°13' E 103°33'510.2
2017-Oct-13 20:30N 01°12' E 103°37'510.2
2017-Oct-13 20:00N 01°14' E 103°42'4 7.6
2017-Oct-13 19:30N 01°17' E 103°44'0 0.3
2017-Oct-13 19:00N 01°17' E 103°44'0 0.0
2017-Oct-13 18:30N 01°17' E 103°44'0 0.0
2017-Oct-13 18:00N 01°17' E 103°44'0 0.0
2017-Oct-13 17:30N 01°17' E 103°44'0 0.0
2017-Oct-13 17:01N 01°17' E 103°44'0 0.0
2017-Oct-13 16:30N 01°17' E 103°44'0 0.0
2017-Oct-13 16:01N 01°17' E 103°44'0 0.0
2017-Oct-13 15:30N 01°17' E 103°44'0 0.0
2017-Oct-13 15:01N 01°17' E 103°44'0 0.0
2017-Oct-13 14:30N 01°17' E 103°44'0 0.0
2017-Oct-13 14:00N 01°17' E 103°44'0 0.0
2017-Oct-13 13:30N 01°17' E 103°44'0 0.0
2017-Oct-13 12:57N 01°17' E 103°44'0 0.0
2017-Oct-13 12:30N 01°17' E 103°44'0 0.0
2017-Oct-13 11:57N 01°17' E 103°44'0 0.0
2017-Oct-13 11:30N 01°17' E 103°44'0 0.0
2017-Oct-13 11:00N 01°17' E 103°44'0 0.0
2017-Oct-13 10:30N 01°17' E 103°44'0 0.0
2017-Oct-13 10:01N 01°17' E 103°44'0 0.0
2017-Oct-13 09:30N 01°17' E 103°44'0 0.0
2017-Oct-13 09:01N 01°17' E 103°44'0 0.0
2017-Oct-13 08:30N 01°17' E 103°44'0 0.0
2017-Oct-13 07:57N 01°17' E 103°44'2 5.4
2017-Oct-13 07:30N 01°16' E 103°46'1 2.3
2017-Oct-13 06:59N 01°15' E 103°47'4 7.6
2017-Oct-13 06:30N 01°17' E 103°44'0 0.0
2017-Oct-13 05:57N 01°17' E 103°44'0 0.0
2017-Oct-13 05:30N 01°17' E 103°44'0 0.0
2017-Oct-13 05:00N 01°17' E 103°44'0 0.0
2017-Oct-13 04:30N 01°17' E 103°44'0 0.0
2017-Oct-13 04:00N 01°17' E 103°44'0 0.0
2017-Oct-13 03:30N 01°17' E 103°44'0 0.0
2017-Oct-13 03:00N 01°17' E 103°44'0 0.0
2017-Oct-13 02:30N 01°17' E 103°44'0 0.0
2017-Oct-13 02:00N 01°17' E 103°44'0 0.0
2017-Oct-13 01:30N 01°17' E 103°44'0 0.0
2017-Oct-13 01:00N 01°17' E 103°44'0 0.0
2017-Oct-13 00:30N 01°17' E 103°44'0 0.0
2017-Oct-13 00:00N 01°17' E 103°44'0 0.0
2017-Oct-12 23:27N 01°17' E 103°44'0 0.0
2017-Oct-12 23:00N 01°17' E 103°44'0 0.6
2017-Oct-12 22:30N 01°17' E 103°44'3 5.8
2017-Oct-12 22:00N 01°15' E 103°46'2 4.4
2017-Oct-12 21:30N 01°14' E 103°48'0 0.2
2017-Oct-12 20:57N 01°14' E 103°48'0 0.1
2017-Oct-12 20:27N 01°14' E 103°48'0 0.1
2017-Oct-12 20:00N 01°14' E 103°48'0 0.1
2017-Oct-12 19:30N 01°14' E 103°48'0 0.0
2017-Oct-12 19:00N 01°14' E 103°48'0 0.0
2017-Oct-12 18:30N 01°14' E 103°48'0 0.1
2017-Oct-12 18:00N 01°14' E 103°48'0 0.0
2017-Oct-12 17:30N 01°14' E 103°48'0 0.0
2017-Oct-12 17:00N 01°14' E 103°48'0 0.0
2017-Oct-12 16:30N 01°14' E 103°48'0 0.0
2017-Oct-12 15:54N 01°14' E 103°48'0 0.0
2017-Oct-12 15:30N 01°14' E 103°48'0 0.0
2017-Oct-12 15:00N 01°14' E 103°48'0 0.0
2017-Oct-12 14:30N 01°14' E 103°48'0 0.0
2017-Oct-12 13:54N 01°14' E 103°48'0 0.0
2017-Oct-12 13:27N 01°14' E 103°48'0 0.0
2017-Oct-12 13:00N 01°14' E 103°48'0 0.0
2017-Oct-12 12:24N 01°14' E 103°48'0 0.1
2017-Oct-12 11:54N 01°14' E 103°48'0 0.0
2017-Oct-12 11:30N 01°14' E 103°48'0 0.0
2017-Oct-12 10:51N 01°14' E 103°48'0 0.0
2017-Oct-12 10:27N 01°14' E 103°48'0 0.0
2017-Oct-12 10:00N 01°14' E 103°48'0 0.2
2017-Oct-12 09:24N 01°14' E 103°48'0 0.0
2017-Oct-12 09:00N 01°14' E 103°48'0 0.1
2017-Oct-12 08:30N 01°14' E 103°48'0 0.1
2017-Oct-12 08:00N 01°14' E 103°48'0 0.2
2017-Oct-12 07:24N 01°14' E 103°48'0 0.0
2017-Oct-12 07:00N 01°14' E 103°48'0 0.0
2017-Oct-12 06:24N 01°14' E 103°48'0 0.3
2017-Oct-12 06:00N 01°14' E 103°48'0 0.0
2017-Oct-12 05:27N 01°14' E 103°48'0 0.0
2017-Oct-12 05:00N 01°14' E 103°48'0 0.1
2017-Oct-12 04:30N 01°14' E 103°48'0 0.1
2017-Oct-12 04:00N 01°14' E 103°48'0 0.1
2017-Oct-12 03:24N 01°14' E 103°48'0 0.0
2017-Oct-12 02:54N 01°14' E 103°48'0 0.2
2017-Oct-12 02:30N 01°14' E 103°48'0 0.0
2017-Oct-12 02:00N 01°14' E 103°48'0 0.0
2017-Oct-12 01:27N 01°14' E 103°48'0 0.0
2017-Oct-12 01:00N 01°14' E 103°48'0 0.2
2017-Oct-12 00:30N 01°14' E 103°48'0 0.1
2017-Oct-12 00:00N 01°14' E 103°48'0 0.1
2017-Oct-11 23:30N 01°14' E 103°48'0 0.2
2017-Oct-11 22:57N 01°14' E 103°48'0 0.1
2017-Oct-11 22:30N 01°14' E 103°48'0 0.3
2017-Oct-11 21:58N 01°14' E 103°48'0 0.0
2017-Oct-11 21:30N 01°14' E 103°48'0 0.3
2017-Oct-11 21:00N 01°14' E 103°48'0 0.0
2017-Oct-11 20:30N 01°14' E 103°48'0 0.1
2017-Oct-11 19:54N 01°14' E 103°48'0 0.0
2017-Oct-11 19:30N 01°14' E 103°48'0 0.0
2017-Oct-11 19:00N 01°14' E 103°48'0 0.0
2017-Oct-11 18:27N 01°14' E 103°48'0 0.0
2017-Oct-11 17:57N 01°14' E 103°48'0 0.4
2017-Oct-11 17:29N 01°14' E 103°48'0 0.1
2017-Oct-11 16:57N 01°14' E 103°48'2 0.1
2017-Oct-10 23:54N 01°14' E 103°46'0 0.0
2017-Oct-10 23:30N 01°14' E 103°46'0 0.0
2017-Oct-10 23:00N 01°14' E 103°46'0 0.0
2017-Oct-10 22:24N 01°14' E 103°46'0 0.0
2017-Oct-10 21:54N 01°14' E 103°46'0 0.0
2017-Oct-10 21:18N 01°14' E 103°46'0 0.0
2017-Oct-10 21:00N 01°14' E 103°46'0 0.0
2017-Oct-10 20:30N 01°14' E 103°46'0 0.0
2017-Oct-10 20:00N 01°14' E 103°46'0 0.0
2017-Oct-10 19:27N 01°14' E 103°46'0 0.0
2017-Oct-10 18:54N 01°14' E 103°46'0 0.2
2017-Oct-10 18:30N 01°14' E 103°46'0 0.1
2017-Oct-10 17:57N 01°14' E 103°46'0 0.0
2017-Oct-10 17:30N 01°14' E 103°46'0 0.0
2017-Oct-10 16:57N 01°14' E 103°46'0 0.0
2017-Oct-10 16:30N 01°14' E 103°46'0 0.0
2017-Oct-10 15:57N 01°14' E 103°46'0 0.0
2017-Oct-10 15:30N 01°14' E 103°46'0 0.0
2017-Oct-10 14:54N 01°14' E 103°46'0 0.0
2017-Oct-10 14:01N 01°14' E 103°46'0 0.0
2017-Oct-10 13:30N 01°14' E 103°46'0 0.0
2017-Oct-10 12:57N 01°14' E 103°46'0 0.0
2017-Oct-10 12:27N 01°14' E 103°46'0 0.0
2017-Oct-10 11:57N 01°14' E 103°46'0 0.0
2017-Oct-10 11:30N 01°14' E 103°46'0 0.0
2017-Oct-10 10:51N 01°14' E 103°46'0 0.0
2017-Oct-10 10:30N 01°14' E 103°46'0 0.0
2017-Oct-10 09:51N 01°14' E 103°46'0 0.0
2017-Oct-10 09:30N 01°14' E 103°46'0 0.0
2017-Oct-10 08:57N 01°14' E 103°46'0 0.0
2017-Oct-10 08:30N 01°14' E 103°46'0 0.1
2017-Oct-10 08:00N 01°14' E 103°46'0 0.0
2017-Oct-10 07:30N 01°14' E 103°46'0 0.1
2017-Oct-10 07:00N 01°14' E 103°46'0 0.0
2017-Oct-10 06:27N 01°14' E 103°46'0 0.0
2017-Oct-10 06:01N 01°14' E 103°46'0 0.0
2017-Oct-10 05:18N 01°14' E 103°46'0 0.0
2017-Oct-10 05:00N 01°14' E 103°46'0 0.0
2017-Oct-10 04:30N 01°14' E 103°46'0 0.0
2017-Oct-10 04:00N 01°14' E 103°46'0 0.0
2017-Oct-10 03:18N 01°14' E 103°46'0 0.0
2017-Oct-10 03:00N 01°14' E 103°46'0 0.0
2017-Oct-10 02:30N 01°14' E 103°46'0 0.0
2017-Oct-10 01:57N 01°14' E 103°46'0 0.0
2017-Oct-10 01:30N 01°14' E 103°46'0 0.0
2017-Oct-10 00:48N 01°14' E 103°46'0 0.0
2017-Oct-10 00:30N 01°14' E 103°46'0 0.0
2017-Oct-10 00:00N 01°14' E 103°46'0 0.0
2017-Oct-09 23:30N 01°14' E 103°46'0 0.0
2017-Oct-09 23:00N 01°14' E 103°46'0 0.0
2017-Oct-09 22:30N 01°14' E 103°46'0 0.0
2017-Oct-09 22:00N 01°14' E 103°46'0 0.0
2017-Oct-09 21:30N 01°14' E 103°46'0 0.0
2017-Oct-09 21:00N 01°14' E 103°46'0 0.0
2017-Oct-09 20:24N 01°14' E 103°46'0 0.0
2017-Oct-09 19:57N 01°14' E 103°46'0 0.0
2017-Oct-09 19:30N 01°14' E 103°46'0 0.0
2017-Oct-09 19:00N 01°14' E 103°46'0 0.1
2017-Oct-09 18:27N 01°14' E 103°46'0 0.1
2017-Oct-09 18:01N 01°14' E 103°46'0 0.0
2017-Oct-09 17:27N 01°14' E 103°46'0 0.0
2017-Oct-09 17:00N 01°14' E 103°46'0 0.0
2017-Oct-09 16:30N 01°14' E 103°46'0 0.0
2017-Oct-09 15:57N 01°14' E 103°46'3 6.1
2017-Oct-09 15:30N 01°13' E 103°49'0 0.1
2017-Oct-09 14:59N 01°13' E 103°49'3 6.4
2017-Oct-09 14:30N 01°14' E 103°46'2 4.0
2017-Oct-09 14:00N 01°13' E 103°48'1 1.9
2017-Oct-09 13:30N 01°13' E 103°48'1 1.3
2017-Oct-09 12:59N 01°13' E 103°49'0 0.0
2017-Oct-09 12:29N 01°13' E 103°49'0 0.0
2017-Oct-09 11:47N 01°13' E 103°49'0 0.1
2017-Oct-09 11:29N 01°13' E 103°49'0 0.0
2017-Oct-09 10:59N 01°13' E 103°49'0 0.0
2017-Oct-09 10:29N 01°13' E 103°49'0 0.0
2017-Oct-09 09:59N 01°13' E 103°49'0 0.0
2017-Oct-09 09:29N 01°13' E 103°49'0 0.0
2017-Oct-09 08:59N 01°13' E 103°49'0 0.0
2017-Oct-09 08:30N 01°13' E 103°49'0 0.0
2017-Oct-09 08:00N 01°13' E 103°49'0 0.0
2017-Oct-09 07:30N 01°13' E 103°49'0 0.0
2017-Oct-09 06:59N 01°13' E 103°49'1 1.2
2017-Oct-09 06:30N 01°13' E 103°48'1 0.3
2017-Oct-09 04:49N 01°12' E 103°48'0 0.0
2017-Oct-09 04:13N 01°12' E 103°48'0 0.0
2017-Oct-09 03:49N 01°12' E 103°48'0 0.0
2017-Oct-09 03:28N 01°12' E 103°48'0 0.0
2017-Oct-09 02:49N 01°12' E 103°48'0 0.0
2017-Oct-09 01:49N 01°12' E 103°48'0 0.0
2017-Oct-09 00:28N 01°12' E 103°48'0 0.0
2017-Oct-08 23:01N 01°12' E 103°48'0 0.0
2017-Oct-08 21:31N 01°12' E 103°48'0 0.0
2017-Oct-08 21:07N 01°12' E 103°48'0 0.0
2017-Oct-08 20:43N 01°12' E 103°48'0 0.0
2017-Oct-08 20:13N 01°12' E 103°48'0 0.0
2017-Oct-08 18:37N 01°12' E 103°48'0 0.0
2017-Oct-08 17:31N 01°12' E 103°48'0 0.0
2017-Oct-08 17:25N 01°12' E 103°48'1 1.6
2017-Oct-08 16:35N 01°13' E 103°47'0 1.7
2017-Oct-08 16:30N 01°14' E 103°47'1 1.7
2017-Oct-08 16:00N 01°14' E 103°47'1 1.9
2017-Oct-08 15:31N 01°15' E 103°46'2 2.3
2017-Oct-08 14:52N 01°15' E 103°45'4 4.2
2017-Oct-08 13:52N 01°12' E 103°48'0 0.0
2017-Oct-08 13:25N 01°12' E 103°48'0 0.0
2017-Oct-08 12:49N 01°12' E 103°48'0 0.0
2017-Oct-08 11:43N 01°12' E 103°48'0 0.0
2017-Oct-08 11:25N 01°12' E 103°48'0 0.0
2017-Oct-08 10:58N 01°12' E 103°48'0 0.0
2017-Oct-08 10:19N 01°12' E 103°48'0 0.0
2017-Oct-08 09:46N 01°12' E 103°48'0 0.0
2017-Oct-08 09:19N 01°12' E 103°48'0 0.0
2017-Oct-08 08:55N 01°12' E 103°48'0 0.3
2017-Oct-08 08:30N 01°12' E 103°48'2 4.5
2017-Oct-08 08:00N 01°14' E 103°47'510.0
2017-Oct-08 07:30N 01°14' E 103°42'2 1.7
2017-Oct-08 06:36N 01°16' E 103°41'0 0.0
2017-Oct-08 06:30N 01°16' E 103°41'0 0.0
2017-Oct-08 05:42N 01°16' E 103°41'0 0.0
2017-Oct-08 05:30N 01°16' E 103°41'0 0.0
2017-Oct-08 04:45N 01°16' E 103°41'0 0.0
2017-Oct-08 04:30N 01°16' E 103°41'0 0.0
2017-Oct-08 03:45N 01°16' E 103°41'0 0.0
2017-Oct-08 03:21N 01°16' E 103°41'0 0.0
2017-Oct-08 02:57N 01°16' E 103°41'0 0.0
2017-Oct-08 02:27N 01°16' E 103°41'0 0.0
2017-Oct-08 01:57N 01°16' E 103°41'0 0.0
2017-Oct-08 01:27N 01°16' E 103°41'0 0.0
2017-Oct-08 00:51N 01°16' E 103°41'0 0.0
2017-Oct-08 00:24N 01°16' E 103°41'0 0.0
2017-Oct-07 23:48N 01°16' E 103°41'0 0.0
2017-Oct-07 23:30N 01°16' E 103°41'0 0.0
2017-Oct-07 22:39N 01°16' E 103°41'0 0.0
2017-Oct-07 22:30N 01°16' E 103°41'0 0.0
2017-Oct-07 21:54N 01°16' E 103°41'0 0.0
2017-Oct-07 20:36N 01°16' E 103°41'0 0.0
2017-Oct-07 20:21N 01°16' E 103°41'0 0.0
2017-Oct-07 19:57N 01°16' E 103°41'0 0.0
2017-Oct-07 19:18N 01°16' E 103°41'0 0.1
2017-Oct-07 18:45N 01°16' E 103°41'0 0.2
2017-Oct-07 18:27N 01°16' E 103°41'0 0.0
2017-Oct-07 17:57N 01°16' E 103°41'0 0.0
2017-Oct-07 17:15N 01°16' E 103°41'0 0.0
2017-Oct-07 16:51N 01°16' E 103°41'0 0.0
2017-Oct-07 15:39N 01°16' E 103°41'0 0.1
2017-Oct-07 15:24N 01°16' E 103°41'0 0.0
2017-Oct-07 14:48N 01°16' E 103°41'0 0.0
2017-Oct-07 13:42N 01°16' E 103°41'0 0.0
2017-Oct-07 10:54N 01°16' E 103°41'0 0.0
2017-Oct-07 09:27N 01°16' E 103°41'0 0.0
2017-Oct-07 08:54N 01°16' E 103°41'0 0.0
2017-Oct-07 08:30N 01°16' E 103°41'0 0.0
2017-Oct-07 07:21N 01°16' E 103°41'0 0.0
2017-Oct-07 06:57N 01°16' E 103°41'0 0.0
2017-Oct-07 06:30N 01°16' E 103°41'0 0.0
2017-Oct-07 05:51N 01°16' E 103°41'0 0.0
2017-Oct-07 05:24N 01°16' E 103°41'0 0.0
2017-Oct-07 04:45N 01°16' E 103°41'0 0.0
2017-Oct-07 04:27N 01°16' E 103°41'0 0.0
2017-Oct-07 03:39N 01°16' E 103°41'0 0.0
2017-Oct-07 03:27N 01°16' E 103°41'0 0.0
2017-Oct-07 02:54N 01°16' E 103°41'0 0.0
2017-Oct-07 02:27N 01°16' E 103°41'0 0.0
2017-Oct-07 01:51N 01°16' E 103°41'0 0.0
2017-Oct-07 01:21N 01°16' E 103°41'  

Dump ship's entire track history